Time;durP1;ratioP1;P1;durP2;ratioP2;P2;SDS_P1;SDS_P2;PMS_P1;PMS_P2;Temp;Humidity;BMP_temperature;BMP_pressure;BME280_temperature;BME280_humidity;BME280_pressure;Samples;Min_cycle;Max_cycle;Signal;HPM_P1;HPM_P2
2022/02/03 00:02:53;;;;;;;;;;;;;;;;;;;;;
2022/02/03 00:06:06;;;;;;;;;;;;;;;;;;;;;
2022/02/03 00:09:16;;;;;;;0.30;0.30;;;;;;;7.67;40.18;92681.69;5067992;28;20489;-89
2022/02/03 00:24:11;;;;;;;0.30;0.30;;;;;;;7.53;39.93;92625.97;5036332;28;20041;-88
2022/02/03 00:27:16;;;;;;;0.20;0.20;;;;;;;7.70;39.98;92650.69;5025846;28;20517;-88
2022/02/03 00:30:02;;;;;;;0.30;0.30;;;;;;;7.68;39.75;92644.97;5039761;28;20063;-89
2022/02/03 00:35:57;;;;;;;0.40;0.40;;;;;;;7.87;39.50;92660.03;4998803;28;20047;-89
2022/02/03 00:50:28;;;;;;;0.20;0.20;;;;;;;8.09;39.79;92670.94;5031453;28;20363;-89
2022/02/03 00:53:23;;;;;;;0.20;0.20;;;;;;;7.77;39.41;92623.56;5034921;28;20505;-89
2022/02/03 00:56:14;;;;;;;;;;;;;;;;;;;;;
2022/02/03 00:58:51;;;;;;;0.40;0.40;;;;;;;8.00;38.40;92628.19;5068385;28;20059;-88
2022/02/03 01:01:30;;;;;;;0.30;0.30;;;;;;;8.07;38.73;92631.31;5054200;28;20076;-88
2022/02/03 01:04:39;;;;;;;0.45;0.32;;;;;;;8.04;38.31;92618.03;5044871;28;20044;-89
2022/02/03 01:07:20;;;;;;;0.30;0.30;;;;;;;8.30;38.25;92655.97;5052487;28;20051;-89
2022/02/03 01:10:24;;;;;;;;;;;;;;;;;;;;;
2022/02/03 01:13:28;;;;;;;0.30;0.30;;;;;;;8.08;38.32;92640.69;5043306;28;20074;-89
2022/02/03 01:16:18;;;;;;;0.38;0.38;;;;;;;8.21;38.03;92628.13;5022626;28;20037;-89
2022/02/03 01:45:49;;;;;;;0.20;0.20;;;;;;;8.37;37.93;92647.88;5062587;28;20043;-89
2022/02/03 01:51:53;;;;;;;0.30;0.30;;;;;;;8.24;37.97;92625.78;5034693;28;20044;-89
2022/02/03 01:54:54;;;;;;;0.30;0.30;;;;;;;8.27;38.09;92637.50;5042614;28;20111;-89
2022/02/03 01:58:26;;;;;;;0.30;0.30;;;;;;;8.58;38.58;92697.38;5030379;28;20059;-89
2022/02/03 02:01:04;;;;;;;0.30;0.30;;;;;;;8.33;38.68;92654.66;5037874;28;20496;-89
2022/02/03 02:03:43;;;;;;;0.30;0.30;;;;;;;8.43;38.66;92680.75;5048368;28;20374;-90
2022/02/03 02:06:33;;;;;;;0.30;0.30;;;;;;;8.47;38.72;92681.78;5045538;28;20032;-88
2022/02/03 02:09:20;;;;;;;;;;;;;;;;;;;;;
2022/02/03 02:12:32;;;;;;;0.30;0.30;;;;;;;8.58;38.53;92686.94;5041882;28;20115;-89
2022/02/03 02:38:27;;;;;;;0.38;0.38;;;;;;;8.18;39.56;92673.78;5021638;28;20040;-89
2022/02/03 02:44:38;;;;;;;;;;;;;;;;;;;;;
2022/02/03 02:47:27;;;;;;;0.40;0.40;;;;;;;8.01;40.45;92679.28;5034478;28;20032;-89
2022/02/03 03:30:12;;;;;;;0.40;0.40;;;;;;;6.65;42.91;92679.84;5034992;28;20032;-88
2022/02/03 03:36:00;;;;;;;0.30;0.30;;;;;;;6.62;42.92;92664.72;5049895;28;20110;-88
2022/02/03 03:38:36;;;;;;;0.30;0.30;;;;;;;6.41;42.91;92636.06;5041522;28;20036;-88
2022/02/03 03:41:11;;;;;;;0.55;0.50;;;;;;;6.58;42.94;92666.28;5039272;28;20040;-89
2022/02/03 03:44:13;;;;;;;;;;;;;;;;;;;;;
2022/02/03 03:47:24;;;;;;;0.30;0.30;;;;;;;6.70;41.82;92661.63;5057679;28;20482;-89
2022/02/03 03:49:55;;;;;;;0.38;0.38;;;;;;;6.74;41.87;92654.88;5024673;28;20029;-88
2022/02/03 03:52:27;;;;;;;0.40;0.40;;;;;;;6.72;41.96;92649.16;5021137;28;20164;-90
2022/02/03 04:38:34;;;;;;;0.30;0.30;;;;;;;6.68;42.40;92720.94;5055013;28;20036;-90
2022/02/03 05:03:31;;;;;;;0.43;0.40;;;;;;;6.51;42.88;92765.38;5025197;28;20040;-89
2022/02/03 05:06:29;;;;;;;0.85;0.40;;;;;;;6.50;43.16;92770.81;5035122;28;20095;-87
2022/02/03 05:12:43;;;;;;;0.30;0.30;;;;;;;6.33;43.06;92763.97;5017341;28;20081;-90
2022/02/03 05:17:59;;;;;;;0.30;0.30;;;;;;;6.34;43.33;92788.94;5017395;28;20045;-89
2022/02/03 05:21:47;;;;;;;0.45;0.40;;;;;;;6.24;43.42;92789.69;5028482;28;20116;-89
2022/02/03 05:44:39;;;;;;;;;;;;;;;;;;;;;
2022/02/03 05:48:02;;;;;;;0.40;0.40;;;;;;;5.61;45.56;92768.69;5016591;28;22049;-89
2022/02/03 05:51:16;;;;;;;0.45;0.45;;;;;;;5.38;45.90;92746.44;5053976;28;20044;-90
2022/02/03 05:54:46;;;;;;;0.40;0.40;;;;;;;5.57;46.73;92785.81;5034114;28;20501;-89
2022/02/03 06:15:23;;;;;;;0.40;0.40;;;;;;;4.97;47.38;92784.19;5035281;28;20048;-88
2022/02/03 06:21:29;;;;;;;0.30;0.30;;;;;;;4.83;48.30;92790.81;5067073;28;20048;-87
2022/02/03 06:24:20;;;;;;;0.30;0.30;;;;;;;4.96;47.93;92814.56;5035718;28;20036;-88
2022/02/03 06:29:56;;;;;;;0.40;0.40;;;;;;;5.18;48.33;92860.47;5073807;28;20044;-88
2022/02/03 06:32:26;;;;;;;0.43;0.43;;;;;;;4.72;48.68;92789.91;5054537;28;20084;-87
2022/02/03 06:34:55;;;;;;;0.30;0.30;;;;;;;4.98;48.66;92840.28;5055198;28;20068;-86
2022/02/03 06:37:28;;;;;;;0.30;0.30;;;;;;;4.77;48.41;92821.06;5050951;28;20028;-87
2022/02/03 06:40:01;;;;;;;0.40;0.40;;;;;;;4.83;48.39;92829.72;5035850;28;20425;-87
2022/02/03 06:42:35;;;;;;;0.32;0.32;;;;;;;5.01;48.93;92855.34;5035596;28;20481;-87
2022/02/03 06:45:14;;;;;;;0.30;0.30;;;;;;;5.16;48.71;92878.88;5036190;28;20063;-87
2022/02/03 06:47:58;;;;;;;0.40;0.40;;;;;;;4.80;48.39;92818.78;5006204;28;20041;-88
2022/02/03 06:50:37;;;;;;;1.55;0.57;;;;;;;5.15;48.50;92871.31;5053829;28;20088;-88
2022/02/03 06:53:10;;;;;;;0.50;0.50;;;;;;;5.22;48.53;92875.31;5038059;28;20141;-87
2022/02/03 07:00:52;;;;;;;2.85;0.50;;;;;;;5.38;48.24;92842.50;5055849;28;20446;-87
2022/02/03 07:03:31;;;;;;;3.38;0.60;;;;;;;7.80;43.91;92855.00;5048273;28;20397;-88
2022/02/03 07:06:18;;;;;;;0.50;0.50;;;;;;;10.31;39.00;92841.03;5035576;28;20037;-88
2022/02/03 07:09:06;;;;;;;;;;;;;;;;;;;;;
2022/02/03 07:11:55;;;;;;;0.45;0.43;;;;;;;13.80;32.37;92839.97;5039660;28;20040;-87
2022/02/03 07:14:34;;;;;;;0.82;0.65;;;;;;;15.01;29.63;92804.16;5021835;28;20032;-90
2022/02/03 07:17:02;;;;;;;0.50;0.50;;;;;;;16.44;27.87;92836.94;5006599;28;20127;-89
2022/02/03 07:19:45;;;;;;;;;;;;;;;;;;;;;
2022/02/03 07:22:32;;;;;;;0.55;0.55;;;;;;;18.70;24.83;92822.38;5056821;28;20041;-88
2022/02/03 07:25:12;;;;;;;0.50;0.50;;;;;;;19.54;23.59;92829.22;5019903;28;20032;-89
2022/02/03 07:28:02;;;;;;;2.40;0.63;;;;;;;20.71;22.35;92883.47;5036489;28;20042;-90
2022/02/03 07:30:33;;;;;;;0.65;0.57;;;;;;;21.65;21.33;92868.72;5018770;28;20103;-89
2022/02/03 07:33:09;;;;;;;1.02;0.75;;;;;;;22.35;19.85;92867.97;5035008;28;20054;-89
2022/02/03 07:36:04;;;;;;;0.75;0.65;;;;;;;21.86;19.97;92857.00;5036627;28;20036;-89
2022/02/03 07:38:37;;;;;;;0.73;0.57;;;;;;;22.05;19.71;92870.38;5018944;28;20164;-89
2022/02/03 07:41:32;;;;;;;3.03;0.75;;;;;;;21.73;19.95;92878.44;4991615;28;20128;-89
2022/02/03 07:44:31;;;;;;;0.73;0.60;;;;;;;23.13;18.54;92878.63;5037387;28;20055;-89
2022/02/03 07:47:03;;;;;;;1.00;0.60;;;;;;;23.75;18.05;92899.88;5041426;28;20029;-88
2022/02/03 07:49:39;;;;;;;1.77;0.68;;;;;;;23.14;18.52;92866.03;5022026;28;20041;-89
2022/02/03 07:52:27;;;;;;;1.33;0.60;;;;;;;22.48;19.15;92873.94;5023681;28;20064;-89
2022/02/03 07:55:35;;;;;;;0.80;0.63;;;;;;;24.18;18.09;92900.50;5039674;28;20029;-89
2022/02/03 07:58:11;;;;;;;3.45;0.70;;;;;;;24.77;16.58;92895.56;5038025;28;20064;-90
2022/02/03 08:00:48;;;;;;;;;;;;;;;25.69;15.49;92940.53;5057326;28;20064;-89
2022/02/03 08:03:36;;;;;;;4.60;0.65;;;;;;;25.11;16.05;92938.41;5039320;28;19922;-89
2022/02/03 08:09:26;;;;;;;9.48;1.15;;;;;;;20.17;21.64;92946.53;5015334;28;20051;-89
2022/02/03 08:12:21;;;;;;;2.65;0.95;;;;;;;19.49;21.99;92911.75;5041466;28;20072;-89
2022/02/03 08:15:15;;;;;;;2.72;1.02;;;;;;;19.65;20.74;92899.38;5027809;28;20049;-89
2022/02/03 08:17:45;;;;;;;4.40;1.13;;;;;;;19.73;21.27;92959.59;5005263;28;20095;-89
2022/02/03 08:23:52;;;;;;;;;;;;;;;;;;;;;
2022/02/03 08:32:20;;;;;;;1.10;0.90;;;;;;;20.76;19.72;92921.25;5075342;28;20033;-88
2022/02/03 08:35:21;;;;;;;4.10;0.93;;;;;;;20.58;19.69;92907.47;5057915;28;20048;-88
2022/02/03 08:43:31;;;;;;;1.38;0.80;;;;;;;20.09;19.75;92907.56;5057734;28;20485;-88
2022/02/03 08:46:14;;;;;;;2.35;0.90;;;;;;;19.34;20.56;92945.81;5058682;28;20028;-88
2022/02/03 08:49:06;;;;;;;1.85;0.98;;;;;;;17.94;21.96;92899.56;5044980;28;20049;-89
2022/02/03 08:51:49;;;;;;;;;;;;;;;;;;;;;
2022/02/03 08:54:38;;;;;;;2.88;1.48;;;;;;;16.95;25.08;92946.31;5075074;28;20039;-89
2022/02/03 08:57:41;;;;;;;3.20;1.25;;;;;;;16.06;25.99;92927.34;5057092;28;20040;-88
2022/02/03 09:30:55;;;;;;;4.57;1.52;;;;;;;13.35;30.81;92978.44;5036483;28;20044;-89
2022/02/03 09:40:07;;;;;;;4.10;1.80;;;;;;;12.33;32.29;93012.34;5017574;28;20033;-88
2022/02/03 09:51:42;;;;;;;8.55;1.92;;;;;;;12.90;31.67;92994.66;5024668;28;20112;-89
2022/02/03 09:59:35;;;;;;;6.72;1.98;;;;;;;13.18;31.97;92997.38;5038768;28;20037;-88
2022/02/03 10:02:11;;;;;;;6.15;1.65;;;;;;;13.68;30.58;93008.84;5020368;28;20053;-88
2022/02/03 10:07:20;;;;;;;5.43;1.90;;;;;;;13.81;31.31;93014.44;5033227;28;20095;-89
2022/02/03 10:09:50;;;;;;;3.70;1.90;;;;;;;13.12;31.73;92999.31;5017467;28;20041;-88
2022/02/03 10:12:16;;;;;;;3.15;1.90;;;;;;;12.98;32.50;93007.16;5033404;28;20513;-88
2022/02/03 10:14:47;;;;;;;3.00;1.60;;;;;;;13.51;32.62;93029.72;5032817;28;20512;-88
2022/02/03 10:17:17;;;;;;;4.70;1.83;;;;;;;13.13;31.09;92993.78;5046539;28;20037;-88
2022/02/03 10:19:47;;;;;;;3.67;1.80;;;;;;;15.16;28.90;93023.38;5029012;28;20048;-89
2022/02/03 10:22:18;;;;;;;8.93;2.67;;;;;;;15.33;28.90;93027.19;5034685;28;20052;-90
2022/02/03 10:24:48;;;;;;;8.48;2.08;;;;;;;14.09;30.69;93029.13;5035150;28;20037;-88
2022/02/03 10:27:38;;;;;;;3.92;2.10;;;;;;;13.67;31.56;93038.09;5019402;28;20041;-88
2022/02/03 10:30:11;;;;;;;4.95;2.05;;;;;;;13.11;33.17;93032.72;5034008;28;20482;-88
2022/02/03 10:32:43;;;;;;;5.53;2.10;;;;;;;13.50;30.49;93018.41;5031967;28;20037;-88
2022/02/03 10:35:45;;;;;;;5.15;2.42;;;;;;;13.33;32.70;93045.25;4999827;28;20040;-88
2022/02/03 10:51:45;;;;;;;6.20;3.40;;;;;;;11.71;35.00;93036.69;5028629;28;20056;-90
2022/02/03 10:54:51;;;;;;;13.35;4.13;;;;;;;11.51;35.40;93024.56;5056577;28;20056;-90
2022/02/03 11:07:48;;;;;;;7.15;4.05;;;;;;;11.01;36.39;92995.94;5039151;28;20037;-90
2022/02/03 11:10:39;;;;;;;7.00;3.33;;;;;;;11.50;35.60;92975.03;5026063;28;20482;-89
2022/02/03 11:13:02;;;;;;;7.22;3.67;;;;;;;11.23;35.15;92984.97;5041101;28;20051;-89
2022/02/03 11:15:30;;;;;;;9.38;3.63;;;;;;;11.84;35.13;93022.09;5035436;28;20032;-90
2022/02/03 11:18:02;;;;;;;6.40;3.80;;;;;;;12.12;34.78;93017.84;5039067;28;20093;-90
2022/02/03 11:20:32;;;;;;;6.38;3.88;;;;;;;11.55;35.60;92988.06;5038292;28;20116;-90
2022/02/03 11:23:19;;;;;;;7.50;3.83;;;;;;;11.67;35.44;93007.59;5072697;28;20078;-90
2022/02/03 11:31:44;;;;;;;8.15;4.55;;;;;;;11.49;36.08;92997.06;5056250;28;20041;-90
2022/02/03 11:34:29;;;;;;;8.85;4.50;;;;;;;11.56;35.96;93006.16;5051748;28;20124;-90
2022/02/03 11:48:54;;;;;;;9.68;4.65;;;;;;;11.14;36.90;93009.44;5022485;28;20033;-90
2022/02/03 11:51:14;;;;;;;8.45;4.18;;;;;;;11.42;36.46;92986.91;5022715;28;20048;-91
2022/02/03 11:54:51;;;;;;;13.52;4.95;;;;;;;11.25;37.25;92993.34;5036575;28;20033;-91
2022/02/03 12:05:35;;;;;;;10.18;4.75;;;;;;;10.73;37.94;92987.00;5038678;28;20044;-89
2022/02/03 12:22:29;;;;;;;10.38;5.28;;;;;;;11.42;35.22;92947.59;5055119;28;20482;-89
2022/02/03 12:25:30;;;;;;;10.07;5.28;;;;;;;11.55;35.01;92946.91;5042703;28;20033;-90
2022/02/03 12:28:34;;;;;;;14.02;6.20;;;;;;;11.52;35.79;92941.44;5021215;28;20386;-89
2022/02/03 12:39:24;;;;;;;13.85;7.18;;;;;;;12.07;35.59;92952.31;5031542;28;20051;-90
2022/02/03 12:42:05;;;;;;;14.05;6.50;;;;;;;11.43;36.00;92957.78;5008802;28;20490;-90
2022/02/03 12:44:37;;;;;;;14.63;7.28;;;;;;;10.95;37.50;92939.41;5024045;28;20043;-90
2022/02/03 12:47:14;;;;;;;12.60;6.65;;;;;;;10.42;37.45;92902.69;5037161;28;20659;-89
2022/02/03 12:49:45;;;;;;;14.35;7.35;;;;;;;10.48;38.61;92913.91;5053211;28;20033;-90
2022/02/03 12:53:04;;;;;;;13.13;7.50;;;;;;;10.65;39.07;92921.34;5039696;28;20051;-90
2022/02/03 12:55:50;;;;;;;;;;;;;;;;;;;;;
2022/02/03 12:58:35;;;;;;;;;;;;;;;;;;;;;
2022/02/03 13:01:27;;;;;;;;;;;;;;;;;;;;;
2022/02/03 13:04:24;;;;;;;15.88;8.52;;;;;;;11.10;38.07;92874.81;5052778;28;19921;-90
2022/02/03 13:10:17;;;;;;;19.02;7.93;;;;;;;11.01;38.30;92854.50;5035481;28;20102;-90
2022/02/03 13:13:39;;;;;;;;;;;;;;;11.01;38.31;92932.28;5023956;28;20047;-91
2022/02/03 13:16:15;;;;;;;17.73;8.40;;;;;;;11.06;37.76;92892.16;5039659;28;19923;-90
2022/02/03 13:23:09;;;;;;;18.50;8.45;;;;;;;11.42;37.34;92880.22;4980697;28;20050;-90
2022/02/03 13:26:01;;;;;;;;;;;;;;;;;;;;;
2022/02/03 13:29:17;;;;;;;;;;;;;;;;;;;;;
2022/02/03 13:32:08;;;;;;;;;;;;;;;;;;;;;
2022/02/03 13:35:22;;;;;;;;;;;;;;;;;;;;;
2022/02/03 13:44:32;;;;;;;19.90;9.25;;;;;;;11.04;38.05;92851.31;5031045;28;20048;-89
2022/02/03 13:47:34;;;;;;;20.13;8.60;;;;;;;11.69;36.86;92889.31;5037241;28;20032;-90
2022/02/03 13:50:19;;;;;;;18.75;8.20;;;;;;;11.68;35.99;92856.28;5035532;28;20044;-90
2022/02/03 13:53:08;;;;;;;20.65;9.00;;;;;;;11.06;36.67;92824.06;5018280;28;20049;-89
2022/02/03 14:35:11;;;;;;;;;;;;;;;;;;;;;
2022/02/03 14:38:14;;;;;;;;;;;;;;;;;;;;;
2022/02/03 14:41:01;;;;;;;17.75;8.80;;;;;;;12.11;35.15;92816.06;4953334;28;20045;-90
2022/02/03 14:44:05;;;;;;;21.52;10.63;;;;;;;11.42;36.65;92806.81;5032683;28;20040;-90
2022/02/03 14:46:52;;;;;;;19.58;10.48;;;;;;;11.51;36.78;92804.34;5015461;28;20037;-89
2022/02/03 14:50:01;;;;;;;;;;;;;;;;;;;;;
2022/02/03 14:52:33;;;;;;;19.45;9.30;;;;;;;11.73;36.26;92832.63;5057683;28;20029;-92
2022/02/03 14:58:11;;;;;;;23.58;9.73;;;;;;;12.01;36.19;92836.16;5014425;28;20153;-90
2022/02/03 15:01:15;;;;;;;18.65;8.95;;;;;;;11.42;36.31;92822.53;5017347;28;20047;-90
2022/02/03 15:03:51;;;;;;;23.92;10.25;;;;;;;11.22;36.05;92825.44;5027735;28;20406;-90
2022/02/03 15:13:02;;;;;;;22.08;9.45;;;;;;;11.60;35.97;92807.09;5041477;28;20037;-90
2022/02/03 15:15:53;;;;;;;17.10;8.88;;;;;;;11.22;36.04;92807.09;5015187;28;20045;-89
2022/02/03 15:18:40;;;;;;;20.30;9.27;;;;;;;10.59;37.27;92827.16;5014305;28;20411;-89
2022/02/03 15:21:28;;;;;;;27.23;9.40;;;;;;;9.76;38.34;92807.94;5015976;28;20044;-89
2022/02/03 15:24:09;;;;;;;20.50;9.52;;;;;;;9.73;38.78;92805.91;4999783;28;20434;-90
2022/02/03 15:27:04;;;;;;;20.30;9.25;;;;;;;9.63;39.53;92847.78;5030126;28;20498;-90
2022/02/03 15:30:01;;;;;;;;;;;;;;;;;;;;;
2022/02/03 15:32:56;;;;;;;19.38;9.32;;;;;;;9.04;40.78;92809.44;5034587;28;20048;-90
2022/02/03 15:35:49;;;;;;;23.13;10.43;;;;;;;9.08;40.69;92797.41;5007060;28;20049;-89
2022/02/03 15:38:22;;;;;;;20.85;9.05;;;;;;;9.69;40.52;92883.28;5003288;28;20037;-89
2022/02/03 15:41:05;;;;;;;;;;;;;;;;;;;;;
2022/02/03 15:46:44;;;;;;;18.58;9.45;;;;;;;9.15;41.89;92822.16;5014892;28;20052;-90
2022/02/03 15:49:39;;;;;;;24.30;10.45;;;;;;;8.92;42.14;92825.41;5002143;28;20052;-91
2022/02/03 16:01:20;;;;;;;20.25;11.02;;;;;;;8.52;44.37;92825.25;5035374;28;20486;-89
2022/02/03 16:16:48;;;;;;;24.77;11.10;;;;;;;8.18;46.50;92840.66;5043418;28;20040;-89
2022/02/03 16:19:07;;;;;;;27.10;12.02;;;;;;;7.91;46.83;92838.34;5034811;28;20499;-89
2022/02/03 16:22:02;;;;;;;24.27;11.93;;;;;;;8.12;47.04;92852.91;5035434;28;20051;-89
2022/02/03 16:25:06;;;;;;;25.48;11.07;;;;;;;7.52;47.47;92771.09;5043206;28;20454;-89
2022/02/03 16:54:50;;;;;;;39.15;17.38;;;;;;;6.66;50.26;92825.28;5067915;28;20055;-89
2022/02/03 16:57:27;;;;;;;124.75;49.92;;;;;;;7.01;50.34;92901.16;5054534;28;20087;-90
2022/02/03 18:27:41;;;;;;;31.85;15.93;;;;;;;5.27;57.25;92925.69;4943180;28;20042;-89
2022/02/03 18:36:02;;;;;;;30.92;13.88;;;;;;;4.86;56.83;92901.84;4972315;28;20551;-88
2022/02/03 18:51:59;;;;;;;26.17;11.77;;;;;;;4.59;57.97;92898.16;5042044;28;20043;-88
2022/02/03 18:55:05;;;;;;;;;;;;;;;;;;;;;
2022/02/03 18:57:54;;;;;;;22.92;11.55;;;;;;;4.67;57.99;92907.31;5010426;28;20045;-88
2022/02/03 19:10:00;;;;;;;25.92;12.25;;;;;;;4.84;58.44;92948.00;4986844;28;20085;-75
2022/02/03 20:08:35;;;;;;;18.33;9.57;;;;;;;4.07;58.54;92937.28;5030171;28;20042;-75
2022/02/03 20:11:00;;;;;;;19.13;9.60;;;;;;;4.04;58.89;92934.38;5027500;28;20554;-75
2022/02/03 20:13:26;;;;;;;20.02;9.98;;;;;;;3.99;59.23;92931.72;5019028;28;20124;-74
2022/02/03 20:15:53;;;;;;;24.80;9.98;;;;;;;3.94;59.65;92930.63;5004824;28;20403;-74
2022/02/03 20:18:19;;;;;;;21.52;9.20;;;;;;;3.89;60.62;92922.75;5028222;28;20036;-75
2022/02/03 20:20:45;;;;;;;22.15;11.15;;;;;;;3.78;62.08;92921.00;5013886;28;20068;-75
2022/02/03 20:23:15;;;;;;;42.72;19.13;;;;;;;3.83;62.27;92921.09;5024889;28;20148;-75
2022/02/03 20:25:45;;;;;;;48.22;22.52;;;;;;;3.79;61.84;92924.41;5031008;28;20135;-75
2022/02/03 20:28:10;;;;;;;23.60;12.13;;;;;;;3.72;61.76;92924.53;5014637;28;20044;-74
2022/02/03 20:30:37;;;;;;;19.20;10.27;;;;;;;3.67;62.47;92920.06;5023114;28;20030;-74
2022/02/03 20:33:03;;;;;;;16.67;10.15;;;;;;;3.62;63.57;92914.00;5014959;28;20479;-74
2022/02/03 20:35:30;;;;;;;27.67;11.77;;;;;;;3.57;63.92;92926.84;5021756;28;20451;-74
2022/02/03 20:37:56;;;;;;;31.50;16.60;;;;;;;3.53;64.65;92916.16;4982055;28;20443;-75
2022/02/03 20:40:22;;;;;;;30.65;17.00;;;;;;;3.46;65.55;92913.72;5025283;28;20380;-75
2022/02/03 20:42:47;;;;;;;33.17;17.65;;;;;;;3.45;66.01;92911.38;5031107;28;20042;-74
2022/02/03 20:45:13;;;;;;;25.55;12.50;;;;;;;3.41;66.39;92905.88;5010096;28;20044;-74
2022/02/03 20:47:39;;;;;;;23.05;11.32;;;;;;;3.39;67.92;92897.56;5013749;28;20159;-74
2022/02/03 20:50:09;;;;;;;19.10;10.88;;;;;;;3.41;68.90;92905.88;5031383;28;20063;-74
2022/02/03 20:52:36;;;;;;;28.02;11.95;;;;;;;3.40;69.25;92908.69;5031173;28;20041;-74
2022/02/03 20:55:02;;;;;;;22.88;13.38;;;;;;;3.38;69.12;92908.13;5012390;28;20478;-75
2022/02/03 20:57:28;;;;;;;34.55;17.88;;;;;;;3.33;69.13;92898.47;5032083;28;20037;-75
2022/02/03 21:00:07;;;;;;;41.08;17.92;;;;;;;3.31;69.82;92893.53;5011578;28;20040;-74
2022/02/03 21:03:14;;;;;;;26.55;14.60;;;;;;;3.26;70.41;92885.66;5022886;28;20057;-75
2022/02/03 21:05:25;;;;;;;24.75;12.02;;;;;;;3.18;71.74;92890.44;5008358;28;20038;-74
2022/02/03 21:07:52;;;;;;;24.20;13.43;;;;;;;3.13;71.31;92883.38;4974053;28;20554;-75
2022/02/03 21:10:22;;;;;;;28.08;14.30;;;;;;;3.10;71.71;92884.59;5009172;28;20026;-74
2022/02/03 21:12:48;;;;;;;29.67;14.70;;;;;;;3.08;71.78;92885.84;5010403;28;20038;-74
2022/02/03 21:15:21;;;;;;;28.15;15.15;;;;;;;3.04;72.34;92880.38;5026244;28;20043;-75
2022/02/03 21:17:47;;;;;;;23.58;11.52;;;;;;;3.01;72.73;92875.63;5011638;28;20045;-75
2022/02/03 21:20:16;;;;;;;19.90;9.82;;;;;;;2.99;72.33;92872.50;5012329;28;20175;-78
2022/02/03 21:22:42;;;;;;;18.48;10.02;;;;;;;2.97;72.26;92869.34;5026829;28;20128;-78
2022/02/03 21:25:33;;;;;;;33.80;16.88;;;;;;;2.89;71.62;92864.56;5016352;28;20029;-78
2022/02/03 21:28:08;;;;;;;32.40;15.98;;;;;;;2.86;71.14;92858.03;5015502;28;20044;-78
2022/02/03 21:30:35;;;;;;;18.63;11.27;;;;;;;2.85;71.46;92856.44;4998960;28;20064;-78
2022/02/03 21:33:01;;;;;;;19.95;10.32;;;;;;;2.85;71.33;92858.25;5015431;28;20108;-78
2022/02/03 21:35:28;;;;;;;19.20;11.00;;;;;;;2.84;71.53;92843.78;5016660;28;20065;-78
2022/02/03 21:37:54;;;;;;;19.35;10.48;;;;;;;2.82;72.02;92840.63;4998221;28;20069;-78
2022/02/03 21:40:21;;;;;;;22.13;10.20;;;;;;;2.79;72.03;92838.47;4998608;28;20042;-78
2022/02/03 21:42:49;;;;;;;23.85;10.35;;;;;;;2.77;72.65;92837.91;5015315;28;20388;-78
2022/02/03 21:45:17;;;;;;;19.08;10.77;;;;;;;2.80;73.72;92834.91;5015266;28;20046;-78
2022/02/03 21:47:46;;;;;;;24.45;11.52;;;;;;;2.72;73.70;92846.38;5014917;28;20049;-78
2022/02/03 21:50:12;;;;;;;26.85;10.95;;;;;;;2.73;73.88;92860.09;5015436;28;20073;-78
2022/02/03 21:52:45;;;;;;;21.67;11.10;;;;;;;2.69;74.78;92855.38;5015479;28;20034;-78
2022/02/03 21:55:10;;;;;;;;;;;;;;;2.63;75.70;92852.91;4998342;28;20056;-78
2022/02/03 21:57:41;;;;;;;15.85;9.20;;;;;;;2.63;76.78;92853.69;4998488;28;19917;-78
2022/02/03 22:03:45;;;;;;;17.60;9.63;;;;;;;2.24;77.12;92799.16;5008850;28;20103;-91
2022/02/03 22:09:55;;;;;;;16.50;9.65;;;;;;;2.11;76.37;92783.13;4994739;28;20042;-90
2022/02/03 22:13:02;;;;;;;;;;;;;;;;;;;;;
2022/02/03 22:19:40;;;;;;;;;;;;;;;;;;;;;
2022/02/03 22:23:21;;;;;;;;;;;;;;;;;;;;;
2022/02/03 22:45:45;;;;;;;;;;;;;;;;;;;;;
2022/02/03 22:48:34;;;;;;;24.13;12.27;;;;;;;2.00;80.57;92829.38;4934686;29;20048;-91
2022/02/03 22:52:03;;;;;;;;;;;;;;;;;;;;;
2022/02/03 22:55:00;;;;;;;;;;;;;;;;;;;;;
2022/02/03 22:57:51;;;;;;;27.67;16.48;;;;;;;1.87;80.30;92814.91;4923845;29;20048;-92
2022/02/03 23:01:09;;;;;;;29.48;16.95;;;;;;;2.17;80.67;92854.53;4939155;29;20035;-91
2022/02/03 23:03:45;;;;;;;35.55;17.63;;;;;;;1.84;80.53;92812.75;4959169;28;20105;-91
2022/02/03 23:07:04;;;;;;;;;;;;;;;;;;;;;
2022/02/03 23:10:15;;;;;;;23.23;12.85;;;;;;;1.87;80.84;92825.25;4994090;28;20038;-90
2022/02/03 23:22:22;;;;;;;;;;;;;;;;;;;;;
2022/02/03 23:25:42;;;;;;;;;;;;;;;;;;;;;
2022/02/03 23:28:31;;;;;;;33.35;15.48;;;;;;;1.73;80.06;92831.59;4964095;28;20138;-91
2022/02/03 23:32:06;;;;;;;29.08;13.85;;;;;;;1.32;80.13;92763.59;4967429;28;20043;-91
2022/02/03 23:38:56;;;;;;;24.75;12.93;;;;;;;1.25;79.91;92762.91;4983442;28;20492;-91
